sensor_id;sensor_type;location;lat;lon;timestamp;pressure;altitude;pressure_sealevel;temperature;humidity
66668;BME280;57205;51.438;-2.006;2023-09-08T00:00:47;100933.66;;;21.42;100.00
66668;BME280;57205;51.438;-2.006;2023-09-08T00:03:12;100931.56;;;21.39;100.00
66668;BME280;57205;51.438;-2.006;2023-09-08T00:05:38;100944.56;;;21.33;100.00
66668;BME280;57205;51.438;-2.006;2023-09-08T00:08:03;100936.91;;;21.27;100.00
66668;BME280;57205;51.438;-2.006;2023-09-08T00:10:29;100945.41;;;21.25;100.00
66668;BME280;57205;51.438;-2.006;2023-09-08T00:12:55;100935.16;;;21.22;100.00
66668;BME280;57205;51.438;-2.006;2023-09-08T00:15:20;100935.69;;;21.16;100.00
66668;BME280;57205;51.438;-2.006;2023-09-08T00:17:46;100928.69;;;21.06;100.00
66668;BME280;57205;51.438;-2.006;2023-09-08T00:20:12;100936.53;;;20.99;100.00
66668;BME280;57205;51.438;-2.006;2023-09-08T00:22:39;100940.22;;;20.95;100.00
66668;BME280;57205;51.438;-2.006;2023-09-08T00:25:05;100945.50;;;20.91;100.00
66668;BME280;57205;51.438;-2.006;2023-09-08T00:27:32;100950.13;;;20.91;100.00
66668;BME280;57205;51.438;-2.006;2023-09-08T00:29:58;100948.56;;;20.90;100.00
66668;BME280;57205;51.438;-2.006;2023-09-08T00:32:27;100948.06;;;20.88;100.00
66668;BME280;57205;51.438;-2.006;2023-09-08T00:34:52;100951.13;;;20.86;100.00
66668;BME280;57205;51.438;-2.006;2023-09-08T00:37:18;100948.69;;;20.85;100.00
66668;BME280;57205;51.438;-2.006;2023-09-08T00:39:44;100942.16;;;20.86;100.00
66668;BME280;57205;51.438;-2.006;2023-09-08T00:42:10;100949.84;;;20.84;100.00
66668;BME280;57205;51.438;-2.006;2023-09-08T00:44:35;100941.53;;;20.80;100.00
66668;BME280;57205;51.438;-2.006;2023-09-08T00:47:01;100942.50;;;20.76;100.00
66668;BME280;57205;51.438;-2.006;2023-09-08T00:49:26;100939.78;;;20.76;100.00
66668;BME280;57205;51.438;-2.006;2023-09-08T00:51:53;100943.63;;;20.75;100.00
66668;BME280;57205;51.438;-2.006;2023-09-08T00:54:19;100936.28;;;20.75;100.00
66668;BME280;57205;51.438;-2.006;2023-09-08T00:56:46;100934.47;;;20.79;100.00
66668;BME280;57205;51.438;-2.006;2023-09-08T00:59:13;100944.25;;;20.80;100.00
66668;BME280;57205;51.438;-2.006;2023-09-08T01:01:38;100931.13;;;20.82;100.00
66668;BME280;57205;51.438;-2.006;2023-09-08T01:04:04;100928.75;;;20.81;100.00
66668;BME280;57205;51.438;-2.006;2023-09-08T01:06:30;100937.19;;;20.79;100.00
66668;BME280;57205;51.438;-2.006;2023-09-08T01:08:57;100933.84;;;20.74;100.00
66668;BME280;57205;51.438;-2.006;2023-09-08T01:11:24;100929.72;;;20.68;100.00
66668;BME280;57205;51.438;-2.006;2023-09-08T01:13:50;100939.66;;;20.64;100.00
66668;BME280;57205;51.438;-2.006;2023-09-08T01:16:15;100936.63;;;20.57;100.00
66668;BME280;57205;51.438;-2.006;2023-09-08T01:18:44;100935.81;;;20.48;100.00
66668;BME280;57205;51.438;-2.006;2023-09-08T01:26:42;100930.44;;;20.30;100.00
66668;BME280;57205;51.438;-2.006;2023-09-08T01:29:09;100921.31;;;20.26;100.00
66668;BME280;57205;51.438;-2.006;2023-09-08T01:31:36;100927.84;;;20.25;100.00
66668;BME280;57205;51.438;-2.006;2023-09-08T01:34:03;100928.50;;;20.22;100.00
66668;BME280;57205;51.438;-2.006;2023-09-08T01:36:34;100918.28;;;20.19;100.00
66668;BME280;57205;51.438;-2.006;2023-09-08T01:39:00;100927.53;;;20.18;100.00
66668;BME280;57205;51.438;-2.006;2023-09-08T01:41:26;100919.22;;;20.15;100.00
66668;BME280;57205;51.438;-2.006;2023-09-08T01:43:52;100918.56;;;20.09;100.00
66668;BME280;57205;51.438;-2.006;2023-09-08T01:46:17;100919.50;;;20.05;100.00
66668;BME280;57205;51.438;-2.006;2023-09-08T01:48:43;100925.28;;;20.03;100.00
66668;BME280;57205;51.438;-2.006;2023-09-08T01:51:08;100924.31;;;19.99;100.00
66668;BME280;57205;51.438;-2.006;2023-09-08T01:53:34;100923.38;;;19.95;100.00
66668;BME280;57205;51.438;-2.006;2023-09-08T01:55:59;100915.84;;;19.92;100.00
66668;BME280;57205;51.438;-2.006;2023-09-08T01:58:25;100909.94;;;19.90;100.00
66668;BME280;57205;51.438;-2.006;2023-09-08T02:00:51;100910.09;;;19.85;100.00
66668;BME280;57205;51.438;-2.006;2023-09-08T02:03:17;100912.00;;;19.85;100.00
66668;BME280;57205;51.438;-2.006;2023-09-08T02:05:42;100909.28;;;19.85;100.00
66668;BME280;57205;51.438;-2.006;2023-09-08T02:08:08;100904.97;;;19.84;100.00
66668;BME280;57205;51.438;-2.006;2023-09-08T02:10:34;100907.22;;;19.82;100.00
66668;BME280;57205;51.438;-2.006;2023-09-08T02:13:00;100906.88;;;19.83;100.00
66668;BME280;57205;51.438;-2.006;2023-09-08T02:15:25;100900.66;;;19.83;100.00
66668;BME280;57205;51.438;-2.006;2023-09-08T02:17:54;100904.19;;;19.83;100.00
66668;BME280;57205;51.438;-2.006;2023-09-08T02:20:20;100903.69;;;19.81;100.00
66668;BME280;57205;51.438;-2.006;2023-09-08T02:22:45;100902.09;;;19.80;100.00
66668;BME280;57205;51.438;-2.006;2023-09-08T02:25:13;100917.91;;;19.78;100.00
66668;BME280;57205;51.438;-2.006;2023-09-08T02:27:39;100916.31;;;19.77;100.00
66668;BME280;57205;51.438;-2.006;2023-09-08T02:30:05;100926.19;;;19.73;100.00
66668;BME280;57205;51.438;-2.006;2023-09-08T02:32:31;100922.84;;;19.68;100.00
66668;BME280;57205;51.438;-2.006;2023-09-08T02:34:56;100925.72;;;19.63;100.00
66668;BME280;57205;51.438;-2.006;2023-09-08T02:37:22;100921.53;;;19.57;100.00
66668;BME280;57205;51.438;-2.006;2023-09-08T02:39:47;100919.78;;;19.52;100.00
66668;BME280;57205;51.438;-2.006;2023-09-08T02:42:13;100923.13;;;19.49;100.00
66668;BME280;57205;51.438;-2.006;2023-09-08T02:44:38;100918.66;;;19.44;100.00
66668;BME280;57205;51.438;-2.006;2023-09-08T02:47:04;100913.06;;;19.41;100.00
66668;BME280;57205;51.438;-2.006;2023-09-08T02:49:31;100910.66;;;19.39;100.00
66668;BME280;57205;51.438;-2.006;2023-09-08T02:51:57;100917.19;;;19.38;100.00
66668;BME280;57205;51.438;-2.006;2023-09-08T02:54:23;100914.31;;;19.35;100.00
66668;BME280;57205;51.438;-2.006;2023-09-08T02:56:48;100914.94;;;19.32;100.00
66668;BME280;57205;51.438;-2.006;2023-09-08T02:59:14;100910.09;;;19.29;100.00
66668;BME280;57205;51.438;-2.006;2023-09-08T03:01:39;100918.72;;;19.31;100.00
66668;BME280;57205;51.438;-2.006;2023-09-08T03:04:05;100918.44;;;19.32;100.00
66668;BME280;57205;51.438;-2.006;2023-09-08T03:06:30;100924.16;;;19.31;100.00
66668;BME280;57205;51.438;-2.006;2023-09-08T03:08:58;100920.94;;;19.29;100.00
66668;BME280;57205;51.438;-2.006;2023-09-08T03:11:24;100924.78;;;19.28;100.00
66668;BME280;57205;51.438;-2.006;2023-09-08T03:13:49;100923.19;;;19.27;100.00
66668;BME280;57205;51.438;-2.006;2023-09-08T03:16:15;100912.03;;;19.28;100.00
66668;BME280;57205;51.438;-2.006;2023-09-08T03:18:41;100909.00;;;19.30;100.00
66668;BME280;57205;51.438;-2.006;2023-09-08T03:21:06;100919.38;;;19.28;100.00
66668;BME280;57205;51.438;-2.006;2023-09-08T03:23:37;100912.81;;;19.29;100.00
66668;BME280;57205;51.438;-2.006;2023-09-08T03:26:02;100919.84;;;19.30;100.00
66668;BME280;57205;51.438;-2.006;2023-09-08T03:28:28;100920.19;;;19.28;100.00
66668;BME280;57205;51.438;-2.006;2023-09-08T03:30:53;100920.47;;;19.27;100.00
66668;BME280;57205;51.438;-2.006;2023-09-08T03:33:19;100921.59;;;19.26;100.00
66668;BME280;57205;51.438;-2.006;2023-09-08T03:35:44;100924.63;;;19.24;100.00
66668;BME280;57205;51.438;-2.006;2023-09-08T03:38:10;100921.09;;;19.24;100.00
66668;BME280;57205;51.438;-2.006;2023-09-08T03:40:35;100918.38;;;19.24;100.00
66668;BME280;57205;51.438;-2.006;2023-09-08T03:43:01;100916.81;;;19.23;100.00
66668;BME280;57205;51.438;-2.006;2023-09-08T03:45:26;100912.97;;;19.24;100.00
66668;BME280;57205;51.438;-2.006;2023-09-08T03:47:52;100911.38;;;19.23;100.00
66668;BME280;57205;51.438;-2.006;2023-09-08T03:50:17;100906.06;;;19.18;100.00
66668;BME280;57205;51.438;-2.006;2023-09-08T03:52:43;100907.03;;;19.13;100.00
66668;BME280;57205;51.438;-2.006;2023-09-08T03:55:08;100903.50;;;19.13;100.00
66668;BME280;57205;51.438;-2.006;2023-09-08T03:57:36;100905.75;;;19.11;100.00
66668;BME280;57205;51.438;-2.006;2023-09-08T04:00:02;100907.16;;;19.08;100.00
66668;BME280;57205;51.438;-2.006;2023-09-08T04:02:29;100911.81;;;19.08;100.00
66668;BME280;57205;51.438;-2.006;2023-09-08T04:04:54;100909.88;;;19.08;100.00
66668;BME280;57205;51.438;-2.006;2023-09-08T04:07:21;100903.94;;;19.06;100.00
66668;BME280;57205;51.438;-2.006;2023-09-08T04:09:46;100910.00;;;19.03;100.00
66668;BME280;57205;51.438;-2.006;2023-09-08T04:12:11;100912.88;;;18.98;100.00
66668;BME280;57205;51.438;-2.006;2023-09-08T04:14:38;100915.25;;;18.91;100.00
66668;BME280;57205;51.438;-2.006;2023-09-08T04:17:04;100918.88;;;18.87;100.00
66668;BME280;57205;51.438;-2.006;2023-09-08T04:19:29;100916.13;;;18.78;100.00
66668;BME280;57205;51.438;-2.006;2023-09-08T04:21:54;100922.16;;;18.75;100.00
66668;BME280;57205;51.438;-2.006;2023-09-08T04:24:20;100920.38;;;18.71;100.00
66668;BME280;57205;51.438;-2.006;2023-09-08T04:26:45;100927.53;;;18.67;100.00
66668;BME280;57205;51.438;-2.006;2023-09-08T04:29:11;100938.19;;;18.63;100.00
66668;BME280;57205;51.438;-2.006;2023-09-08T04:31:38;100936.41;;;18.59;100.00
66668;BME280;57205;51.438;-2.006;2023-09-08T04:34:03;100939.75;;;18.56;100.00
66668;BME280;57205;51.438;-2.006;2023-09-08T04:36:29;100936.53;;;18.54;100.00
66668;BME280;57205;51.438;-2.006;2023-09-08T04:38:56;100937.63;;;18.52;100.00
66668;BME280;57205;51.438;-2.006;2023-09-08T04:41:21;100931.13;;;18.54;100.00
66668;BME280;57205;51.438;-2.006;2023-09-08T04:43:47;100932.72;;;18.55;100.00
66668;BME280;57205;51.438;-2.006;2023-09-08T04:46:13;100940.34;;;18.52;100.00
66668;BME280;57205;51.438;-2.006;2023-09-08T04:48:38;100935.56;;;18.49;100.00
66668;BME280;57205;51.438;-2.006;2023-09-08T04:51:05;100930.44;;;18.48;100.00
66668;BME280;57205;51.438;-2.006;2023-09-08T04:53:30;100938.88;;;18.46;100.00
66668;BME280;57205;51.438;-2.006;2023-09-08T04:55:58;100936.78;;;18.43;100.00
66668;BME280;57205;51.438;-2.006;2023-09-08T04:58:24;100939.50;;;18.43;100.00
66668;BME280;57205;51.438;-2.006;2023-09-08T05:00:51;100938.19;;;18.41;100.00
66668;BME280;57205;51.438;-2.006;2023-09-08T05:03:18;100932.28;;;18.39;100.00
66668;BME280;57205;51.438;-2.006;2023-09-08T05:05:44;100936.38;;;18.36;100.00
66668;BME280;57205;51.438;-2.006;2023-09-08T05:08:10;100929.06;;;18.37;100.00
66668;BME280;57205;51.438;-2.006;2023-09-08T05:10:35;100930.16;;;18.36;100.00
66668;BME280;57205;51.438;-2.006;2023-09-08T05:13:01;100927.75;;;18.34;100.00
66668;BME280;57205;51.438;-2.006;2023-09-08T05:15:26;100921.53;;;18.34;100.00
66668;BME280;57205;51.438;-2.006;2023-09-08T05:17:52;100926.66;;;18.35;100.00
66668;BME280;57205;51.438;-2.006;2023-09-08T05:20:17;100919.81;;;18.38;100.00
66668;BME280;57205;51.438;-2.006;2023-09-08T05:22:43;100921.13;;;18.40;100.00
66668;BME280;57205;51.438;-2.006;2023-09-08T05:25:11;100930.59;;;18.43;100.00
66668;BME280;57205;51.438;-2.006;2023-09-08T05:27:37;100926.75;;;18.44;100.00
66668;BME280;57205;51.438;-2.006;2023-09-08T05:30:03;100929.16;;;18.45;100.00
66668;BME280;57205;51.438;-2.006;2023-09-08T05:32:29;100925.34;;;18.46;100.00
66668;BME280;57205;51.438;-2.006;2023-09-08T05:34:54;100935.38;;;18.46;100.00
66668;BME280;57205;51.438;-2.006;2023-09-08T05:37:20;100937.91;;;18.42;100.00
66668;BME280;57205;51.438;-2.006;2023-09-08T05:39:45;100948.75;;;18.42;100.00
66668;BME280;57205;51.438;-2.006;2023-09-08T05:42:11;100946.59;;;18.39;100.00
66668;BME280;57205;51.438;-2.006;2023-09-08T05:44:36;100949.13;;;18.36;100.00
66668;BME280;57205;51.438;-2.006;2023-09-08T05:47:02;100950.06;;;18.31;100.00
66668;BME280;57205;51.438;-2.006;2023-09-08T05:49:28;100940.31;;;18.30;100.00
66668;BME280;57205;51.438;-2.006;2023-09-08T05:51:53;100944.16;;;18.29;100.00
66668;BME280;57205;51.438;-2.006;2023-09-08T05:54:19;100953.88;;;18.30;100.00
66668;BME280;57205;51.438;-2.006;2023-09-08T05:56:44;100952.28;;;18.29;100.00
66668;BME280;57205;51.438;-2.006;2023-09-08T05:59:10;100955.47;;;18.31;100.00
66668;BME280;57205;51.438;-2.006;2023-09-08T06:01:38;100953.28;;;18.33;100.00
66668;BME280;57205;51.438;-2.006;2023-09-08T06:04:03;100956.66;;;18.39;100.00
66668;BME280;57205;51.438;-2.006;2023-09-08T06:06:29;100951.00;;;18.49;100.00
66668;BME280;57205;51.438;-2.006;2023-09-08T06:08:54;100947.56;;;18.57;100.00
66668;BME280;57205;51.438;-2.006;2023-09-08T06:11:20;100945.28;;;18.73;100.00
66668;BME280;57205;51.438;-2.006;2023-09-08T06:13:46;100943.78;;;18.89;100.00
66668;BME280;57205;51.438;-2.006;2023-09-08T06:16:11;100949.28;;;19.06;100.00
66668;BME280;57205;51.438;-2.006;2023-09-08T06:18:37;100953.19;;;19.22;100.00
66668;BME280;57205;51.438;-2.006;2023-09-08T06:21:06;100952.78;;;19.37;100.00
66668;BME280;57205;51.438;-2.006;2023-09-08T06:23:35;100952.38;;;19.52;100.00
66668;BME280;57205;51.438;-2.006;2023-09-08T06:26:01;100947.09;;;19.64;100.00
66668;BME280;57205;51.438;-2.006;2023-09-08T06:28:28;100954.16;;;19.74;100.00
66668;BME280;57205;51.438;-2.006;2023-09-08T06:30:54;100958.50;;;19.75;100.00
66668;BME280;57205;51.438;-2.006;2023-09-08T06:33:20;100963.75;;;19.80;100.00
66668;BME280;57205;51.438;-2.006;2023-09-08T06:35:47;100961.06;;;19.88;100.00
66668;BME280;57205;51.438;-2.006;2023-09-08T06:38:13;100955.16;;;20.03;100.00
66668;BME280;57205;51.438;-2.006;2023-09-08T06:40:39;100957.91;;;20.20;100.00
66668;BME280;57205;51.438;-2.006;2023-09-08T06:43:04;100959.03;;;20.36;100.00
66668;BME280;57205;51.438;-2.006;2023-09-08T06:45:30;100973.91;;;20.56;100.00
66668;BME280;57205;51.438;-2.006;2023-09-08T06:47:56;100978.19;;;20.74;100.00
66668;BME280;57205;51.438;-2.006;2023-09-08T06:50:22;100974.81;;;20.86;100.00
66668;BME280;57205;51.438;-2.006;2023-09-08T06:52:51;100970.78;;;21.00;100.00
66668;BME280;57205;51.438;-2.006;2023-09-08T06:55:17;100970.31;;;21.07;100.00
66668;BME280;57205;51.438;-2.006;2023-09-08T06:57:43;100969.13;;;21.16;100.00
66668;BME280;57205;51.438;-2.006;2023-09-08T07:00:09;100969.25;;;21.20;100.00
66668;BME280;57205;51.438;-2.006;2023-09-08T07:02:37;100967.22;;;21.17;100.00
66668;BME280;57205;51.438;-2.006;2023-09-08T07:05:03;100972.84;;;21.12;100.00
66668;BME280;57205;51.438;-2.006;2023-09-08T07:07:36;100973.81;;;20.99;100.00
66668;BME280;57205;51.438;-2.006;2023-09-08T07:10:03;100976.72;;;20.94;100.00
66668;BME280;57205;51.438;-2.006;2023-09-08T07:12:29;100976.53;;;20.90;100.00
66668;BME280;57205;51.438;-2.006;2023-09-08T07:14:55;100974.47;;;20.87;100.00
66668;BME280;57205;51.438;-2.006;2023-09-08T07:17:20;100972.09;;;20.86;100.00
66668;BME280;57205;51.438;-2.006;2023-09-08T07:19:47;100970.94;;;20.87;100.00
66668;BME280;57205;51.438;-2.006;2023-09-08T07:22:12;100971.75;;;20.87;100.00
66668;BME280;57205;51.438;-2.006;2023-09-08T07:24:38;100964.03;;;20.98;100.00
66668;BME280;57205;51.438;-2.006;2023-09-08T07:27:05;100957.47;;;21.07;100.00
66668;BME280;57205;51.438;-2.006;2023-09-08T07:29:30;100964.81;;;21.15;100.00
66668;BME280;57205;51.438;-2.006;2023-09-08T07:31:55;100954.41;;;21.17;100.00
66668;BME280;57205;51.438;-2.006;2023-09-08T07:34:22;100965.72;;;21.28;100.00
66668;BME280;57205;51.438;-2.006;2023-09-08T07:36:47;100962.19;;;21.36;100.00
66668;BME280;57205;51.438;-2.006;2023-09-08T07:39:16;100967.22;;;21.46;100.00
66668;BME280;57205;51.438;-2.006;2023-09-08T07:41:41;100970.53;;;21.60;100.00
66668;BME280;57205;51.438;-2.006;2023-09-08T07:44:07;100981.50;;;21.72;100.00
66668;BME280;57205;51.438;-2.006;2023-09-08T07:46:33;100984.38;;;21.84;100.00
66668;BME280;57205;51.438;-2.006;2023-09-08T07:48:59;100978.97;;;21.96;100.00
66668;BME280;57205;51.438;-2.006;2023-09-08T07:51:25;100982.13;;;22.07;100.00
66668;BME280;57205;51.438;-2.006;2023-09-08T07:53:54;100975.81;;;22.15;100.00
66668;BME280;57205;51.438;-2.006;2023-09-08T07:56:21;100971.88;;;22.24;100.00
66668;BME280;57205;51.438;-2.006;2023-09-08T07:58:47;100971.69;;;22.29;100.00
66668;BME280;57205;51.438;-2.006;2023-09-08T08:01:13;100969.09;;;22.33;100.00
66668;BME280;57205;51.438;-2.006;2023-09-08T08:03:41;100963.91;;;22.40;100.00
66668;BME280;57205;51.438;-2.006;2023-09-08T08:06:06;100966.53;;;22.49;100.00
66668;BME280;57205;51.438;-2.006;2023-09-08T08:08:32;100954.28;;;22.55;100.00
66668;BME280;57205;51.438;-2.006;2023-09-08T08:10:58;100958.09;;;22.62;100.00
66668;BME280;57205;51.438;-2.006;2023-09-08T08:13:24;100959.84;;;22.79;100.00
66668;BME280;57205;51.438;-2.006;2023-09-08T08:15:49;100966.81;;;22.88;100.00
66668;BME280;57205;51.438;-2.006;2023-09-08T08:18:15;100970.81;;;23.03;100.00
66668;BME280;57205;51.438;-2.006;2023-09-08T08:20:41;100969.44;;;23.30;100.00
66668;BME280;57205;51.438;-2.006;2023-09-08T08:23:06;100972.84;;;23.63;100.00
66668;BME280;57205;51.438;-2.006;2023-09-08T08:25:32;100972.56;;;23.92;100.00
66668;BME280;57205;51.438;-2.006;2023-09-08T08:27:59;100976.97;;;24.21;100.00
66668;BME280;57205;51.438;-2.006;2023-09-08T08:30:28;100985.47;;;24.43;100.00
66668;BME280;57205;51.438;-2.006;2023-09-08T08:32:53;100977.19;;;24.55;100.00
66668;BME280;57205;51.438;-2.006;2023-09-08T08:35:20;100978.03;;;24.71;100.00
66668;BME280;57205;51.438;-2.006;2023-09-08T08:37:45;100987.47;;;24.86;100.00
66668;BME280;57205;51.438;-2.006;2023-09-08T08:40:11;100985.13;;;24.88;100.00
66668;BME280;57205;51.438;-2.006;2023-09-08T08:42:41;100987.78;;;24.84;100.00
66668;BME280;57205;51.438;-2.006;2023-09-08T08:45:07;100983.56;;;24.87;100.00
66668;BME280;57205;51.438;-2.006;2023-09-08T08:47:40;100973.31;;;24.84;100.00
66668;BME280;57205;51.438;-2.006;2023-09-08T08:50:11;100979.75;;;24.76;100.00
66668;BME280;57205;51.438;-2.006;2023-09-08T08:52:45;100975.19;;;24.68;100.00
66668;BME280;57205;51.438;-2.006;2023-09-08T08:55:11;100981.72;;;24.63;100.00
66668;BME280;57205;51.438;-2.006;2023-09-08T08:57:38;100971.13;;;24.62;100.00
66668;BME280;57205;51.438;-2.006;2023-09-08T09:00:07;100977.63;;;24.57;100.00
66668;BME280;57205;51.438;-2.006;2023-09-08T09:02:39;100982.66;;;24.55;100.00
66668;BME280;57205;51.438;-2.006;2023-09-08T09:05:05;100984.00;;;24.61;100.00
66668;BME280;57205;51.438;-2.006;2023-09-08T09:07:32;100993.44;;;24.76;100.00
66668;BME280;57205;51.438;-2.006;2023-09-08T09:09:58;100993.25;;;25.12;100.00
66668;BME280;57205;51.438;-2.006;2023-09-08T09:12:24;100994.47;;;25.77;100.00
66668;BME280;57205;51.438;-2.006;2023-09-08T09:14:53;100994.66;;;26.57;100.00
66668;BME280;57205;51.438;-2.006;2023-09-08T09:17:19;101000.81;;;27.34;95.67
66668;BME280;57205;51.438;-2.006;2023-09-08T09:19:44;100998.72;;;27.99;87.92
66668;BME280;57205;51.438;-2.006;2023-09-08T09:22:10;100997.94;;;28.57;82.86
66668;BME280;57205;51.438;-2.006;2023-09-08T09:24:41;101000.59;;;28.83;76.92
66668;BME280;57205;51.438;-2.006;2023-09-08T09:27:09;100993.84;;;29.18;69.47
66668;BME280;57205;51.438;-2.006;2023-09-08T09:29:45;100993.25;;;29.38;70.29
66668;BME280;57205;51.438;-2.006;2023-09-08T09:32:14;100993.06;;;29.64;68.06
66668;BME280;57205;51.438;-2.006;2023-09-08T09:34:51;100994.09;;;30.00;64.21
66668;BME280;57205;51.438;-2.006;2023-09-08T09:37:19;100991.78;;;30.13;61.45
66668;BME280;57205;51.438;-2.006;2023-09-08T09:40:03;100990.03;;;30.59;61.59
66668;BME280;57205;51.438;-2.006;2023-09-08T09:42:32;100986.13;;;30.67;56.04
66668;BME280;57205;51.438;-2.006;2023-09-08T09:45:00;100980.28;;;30.97;56.88
66668;BME280;57205;51.438;-2.006;2023-09-08T09:47:26;100965.69;;;31.31;57.58
66668;BME280;57205;51.438;-2.006;2023-09-08T09:49:52;100971.63;;;31.44;56.67
66668;BME280;57205;51.438;-2.006;2023-09-08T09:52:22;100973.56;;;31.33;53.81
66668;BME280;57205;51.438;-2.006;2023-09-08T09:54:48;100981.50;;;31.48;55.40
66668;BME280;57205;51.438;-2.006;2023-09-08T09:57:20;100980.72;;;31.58;55.32
66668;BME280;57205;51.438;-2.006;2023-09-08T09:59:47;100975.53;;;31.82;52.81
66668;BME280;57205;51.438;-2.006;2023-09-08T10:02:15;100979.91;;;31.79;54.29
66668;BME280;57205;51.438;-2.006;2023-09-08T10:04:42;100978.31;;;31.96;51.14
66668;BME280;57205;51.438;-2.006;2023-09-08T10:07:08;100973.91;;;32.02;51.20
66668;BME280;57205;51.438;-2.006;2023-09-08T10:09:37;100974.31;;;32.04;51.34
66668;BME280;57205;51.438;-2.006;2023-09-08T10:12:04;100974.22;;;32.28;50.18
66668;BME280;57205;51.438;-2.006;2023-09-08T10:14:32;100974.88;;;32.61;48.14
66668;BME280;57205;51.438;-2.006;2023-09-08T10:17:01;100971.19;;;32.81;47.68
66668;BME280;57205;51.438;-2.006;2023-09-08T10:19:27;100982.63;;;32.90;44.75
66668;BME280;57205;51.438;-2.006;2023-09-08T10:21:55;100977.66;;;33.19;44.87
66668;BME280;57205;51.438;-2.006;2023-09-08T10:24:27;100982.31;;;33.32;42.28
66668;BME280;57205;51.438;-2.006;2023-09-08T10:27:02;100982.91;;;33.58;42.67
66668;BME280;57205;51.438;-2.006;2023-09-08T10:29:29;100983.69;;;33.58;41.19
66668;BME280;57205;51.438;-2.006;2023-09-08T10:31:55;100976.50;;;33.64;41.51
66668;BME280;57205;51.438;-2.006;2023-09-08T10:34:23;100974.34;;;33.79;41.75
66668;BME280;57205;51.438;-2.006;2023-09-08T10:36:49;100970.41;;;33.76;42.35
66668;BME280;57205;51.438;-2.006;2023-09-08T10:39:32;100970.09;;;33.67;40.23
66668;BME280;57205;51.438;-2.006;2023-09-08T10:47:25;100971.44;;;33.04;42.97
66668;BME280;57205;51.438;-2.006;2023-09-08T10:49:51;100972.38;;;32.80;41.89
66668;BME280;57205;51.438;-2.006;2023-09-08T10:52:21;100978.81;;;32.63;42.65
66668;BME280;57205;51.438;-2.006;2023-09-08T10:54:51;100972.59;;;32.38;43.27
66668;BME280;57205;51.438;-2.006;2023-09-08T10:57:18;100966.31;;;32.27;44.52
66668;BME280;57205;51.438;-2.006;2023-09-08T11:04:58;100966.84;;;31.69;45.17
66668;BME280;57205;51.438;-2.006;2023-09-08T11:07:24;100966.88;;;31.58;45.52
66668;BME280;57205;51.438;-2.006;2023-09-08T11:09:50;100966.91;;;31.55;45.10
66668;BME280;57205;51.438;-2.006;2023-09-08T11:12:16;100964.09;;;31.62;46.71
66668;BME280;57205;51.438;-2.006;2023-09-08T11:14:43;100969.66;;;31.55;45.19
66668;BME280;57205;51.438;-2.006;2023-09-08T11:17:08;100967.66;;;31.55;45.01
66668;BME280;57205;51.438;-2.006;2023-09-08T11:20:03;100963.31;;;31.58;45.57
66668;BME280;57205;51.438;-2.006;2023-09-08T11:22:34;100964.88;;;31.62;45.96
66668;BME280;57205;51.438;-2.006;2023-09-08T11:25:00;100962.09;;;31.62;46.52
66668;BME280;57205;51.438;-2.006;2023-09-08T11:27:27;100954.22;;;31.54;45.44
66668;BME280;57205;51.438;-2.006;2023-09-08T11:29:54;100958.19;;;31.49;45.69
66668;BME280;57205;51.438;-2.006;2023-09-08T11:32:19;100953.44;;;31.46;47.17
66668;BME280;57205;51.438;-2.006;2023-09-08T11:34:45;100957.38;;;31.31;48.18
66668;BME280;57205;51.438;-2.006;2023-09-08T11:37:12;100949.91;;;31.21;47.21
66668;BME280;57205;51.438;-2.006;2023-09-08T11:39:39;100953.03;;;31.20;47.59
66668;BME280;57205;51.438;-2.006;2023-09-08T11:42:06;100951.47;;;31.19;47.96
66668;BME280;57205;51.438;-2.006;2023-09-08T11:44:35;100945.94;;;31.22;48.82
66668;BME280;57205;51.438;-2.006;2023-09-08T11:47:06;100954.59;;;31.35;49.38
66668;BME280;57205;51.438;-2.006;2023-09-08T11:49:36;100949.88;;;31.42;49.53
66668;BME280;57205;51.438;-2.006;2023-09-08T11:52:03;100956.63;;;31.45;47.68
66668;BME280;57205;51.438;-2.006;2023-09-08T11:54:31;100953.84;;;31.45;47.89
66668;BME280;57205;51.438;-2.006;2023-09-08T11:56:59;100939.59;;;31.50;48.72
66668;BME280;57205;51.438;-2.006;2023-09-08T11:59:26;100946.72;;;31.51;48.56
66668;BME280;57205;51.438;-2.006;2023-09-08T12:01:52;100944.34;;;31.42;48.71
66668;BME280;57205;51.438;-2.006;2023-09-08T12:04:19;100949.88;;;31.32;49.75
66668;BME280;57205;51.438;-2.006;2023-09-08T12:06:48;100949.88;;;31.32;49.55
66668;BME280;57205;51.438;-2.006;2023-09-08T12:09:15;100947.13;;;31.28;48.89
66668;BME280;57205;51.438;-2.006;2023-09-08T12:11:42;100940.41;;;31.15;49.38
66668;BME280;57205;51.438;-2.006;2023-09-08T12:14:12;100929.34;;;31.15;49.07
66668;BME280;57205;51.438;-2.006;2023-09-08T12:16:38;100931.72;;;31.17;48.95
66668;BME280;57205;51.438;-2.006;2023-09-08T12:19:05;100941.97;;;31.16;51.86
66668;BME280;57205;51.438;-2.006;2023-09-08T12:21:31;100949.88;;;31.11;50.53
66668;BME280;57205;51.438;-2.006;2023-09-08T12:23:58;100941.97;;;31.02;49.66
66668;BME280;57205;51.438;-2.006;2023-09-08T12:26:27;100948.69;;;31.01;50.90
66668;BME280;57205;51.438;-2.006;2023-09-08T12:28:52;100946.72;;;30.98;50.65
66668;BME280;57205;51.438;-2.006;2023-09-08T12:31:18;100953.03;;;30.95;51.02
66668;BME280;57205;51.438;-2.006;2023-09-08T12:33:44;100948.69;;;30.94;52.66
66668;BME280;57205;51.438;-2.006;2023-09-08T12:36:19;100942.75;;;30.85;53.86
66668;BME280;57205;51.438;-2.006;2023-09-08T12:38:49;100934.44;;;30.71;52.85
66668;BME280;57205;51.438;-2.006;2023-09-08T12:41:15;100936.38;;;30.63;55.18
66668;BME280;57205;51.438;-2.006;2023-09-08T12:43:41;100934.78;;;30.55;54.95
66668;BME280;57205;51.438;-2.006;2023-09-08T12:46:07;100928.03;;;30.49;53.63